sensor_id;sensor_type;location;lat;lon;timestamp;temperature;humidity
15617;DHT22;7908;51.688;7.130;2022-10-16T00:01:51;13.00;99.90
15617;DHT22;7908;51.688;7.130;2022-10-16T00:04:20;13.10;99.90
15617;DHT22;7908;51.688;7.130;2022-10-16T00:06:48;13.10;99.90
15617;DHT22;7908;51.688;7.130;2022-10-16T00:09:17;13.10;99.90
15617;DHT22;7908;51.688;7.130;2022-10-16T00:11:46;13.00;99.90
15617;DHT22;7908;51.688;7.130;2022-10-16T00:14:15;13.00;99.90
15617;DHT22;7908;51.688;7.130;2022-10-16T00:16:47;13.00;99.90
15617;DHT22;7908;51.688;7.130;2022-10-16T00:19:16;13.00;99.90
15617;DHT22;7908;51.688;7.130;2022-10-16T00:21:44;12.90;99.90
15617;DHT22;7908;51.688;7.130;2022-10-16T00:24:13;12.90;99.90
15617;DHT22;7908;51.688;7.130;2022-10-16T00:26:42;12.90;99.90
15617;DHT22;7908;51.688;7.130;2022-10-16T00:29:11;12.80;99.90
15617;DHT22;7908;51.688;7.130;2022-10-16T00:31:39;12.80;99.90
15617;DHT22;7908;51.688;7.130;2022-10-16T00:34:10;12.80;99.90
15617;DHT22;7908;51.688;7.130;2022-10-16T00:36:39;12.80;99.90
15617;DHT22;7908;51.688;7.130;2022-10-16T00:39:08;12.70;99.90
15617;DHT22;7908;51.688;7.130;2022-10-16T00:41:37;12.70;99.90
15617;DHT22;7908;51.688;7.130;2022-10-16T00:47:09;12.70;99.90
15617;DHT22;7908;51.688;7.130;2022-10-16T00:49:42;12.70;99.90
15617;DHT22;7908;51.688;7.130;2022-10-16T00:52:12;12.70;99.90
15617;DHT22;7908;51.688;7.130;2022-10-16T00:54:42;12.70;99.90
15617;DHT22;7908;51.688;7.130;2022-10-16T00:57:11;12.70;99.90
15617;DHT22;7908;51.688;7.130;2022-10-16T00:59:45;12.70;99.90
15617;DHT22;7908;51.688;7.130;2022-10-16T01:02:15;12.70;99.90
15617;DHT22;7908;51.688;7.130;2022-10-16T01:04:48;12.60;99.90
15617;DHT22;7908;51.688;7.130;2022-10-16T01:07:38;12.60;99.90
15617;DHT22;7908;51.688;7.130;2022-10-16T01:10:17;12.60;99.90
15617;DHT22;7908;51.688;7.130;2022-10-16T01:12:56;12.60;99.90
15617;DHT22;7908;51.688;7.130;2022-10-16T01:15:29;12.50;99.90
15617;DHT22;7908;51.688;7.130;2022-10-16T01:18:02;12.50;99.90
15617;DHT22;7908;51.688;7.130;2022-10-16T01:20:37;12.50;99.90
15617;DHT22;7908;51.688;7.130;2022-10-16T01:23:21;12.50;99.90
15617;DHT22;7908;51.688;7.130;2022-10-16T01:26:02;12.50;99.90
15617;DHT22;7908;51.688;7.130;2022-10-16T01:28:41;12.50;99.90
15617;DHT22;7908;51.688;7.130;2022-10-16T01:31:11;12.50;99.90
15617;DHT22;7908;51.688;7.130;2022-10-16T01:33:45;12.50;99.90
15617;DHT22;7908;51.688;7.130;2022-10-16T01:36:17;12.50;99.90
15617;DHT22;7908;51.688;7.130;2022-10-16T01:42:33;12.50;99.90
15617;DHT22;7908;51.688;7.130;2022-10-16T01:45:07;12.50;99.90
15617;DHT22;7908;51.688;7.130;2022-10-16T01:47:39;12.50;99.90
15617;DHT22;7908;51.688;7.130;2022-10-16T01:50:09;12.50;99.90
15617;DHT22;7908;51.688;7.130;2022-10-16T01:52:43;12.50;99.90
15617;DHT22;7908;51.688;7.130;2022-10-16T01:55:16;12.50;99.90
15617;DHT22;7908;51.688;7.130;2022-10-16T01:57:48;12.50;99.90
15617;DHT22;7908;51.688;7.130;2022-10-16T02:00:21;12.50;99.90
15617;DHT22;7908;51.688;7.130;2022-10-16T02:02:55;12.50;99.90
15617;DHT22;7908;51.688;7.130;2022-10-16T02:05:28;12.50;99.90
15617;DHT22;7908;51.688;7.130;2022-10-16T02:08:00;12.50;99.90
15617;DHT22;7908;51.688;7.130;2022-10-16T02:10:32;12.50;99.90
15617;DHT22;7908;51.688;7.130;2022-10-16T02:13:06;12.50;99.90
15617;DHT22;7908;51.688;7.130;2022-10-16T02:15:38;12.40;99.90
15617;DHT22;7908;51.688;7.130;2022-10-16T02:18:07;12.40;99.90
15617;DHT22;7908;51.688;7.130;2022-10-16T02:20:45;12.30;99.90
15617;DHT22;7908;51.688;7.130;2022-10-16T02:23:22;12.30;99.90
15617;DHT22;7908;51.688;7.130;2022-10-16T02:25:53;12.30;99.90
15617;DHT22;7908;51.688;7.130;2022-10-16T02:28:27;12.30;99.90
15617;DHT22;7908;51.688;7.130;2022-10-16T02:31:04;12.30;99.90
15617;DHT22;7908;51.688;7.130;2022-10-16T02:33:34;12.30;99.90
15617;DHT22;7908;51.688;7.130;2022-10-16T02:36:05;12.30;99.90
15617;DHT22;7908;51.688;7.130;2022-10-16T02:38:34;12.30;99.90
15617;DHT22;7908;51.688;7.130;2022-10-16T02:41:04;12.30;99.90
15617;DHT22;7908;51.688;7.130;2022-10-16T02:43:35;12.30;99.90
15617;DHT22;7908;51.688;7.130;2022-10-16T02:46:05;12.30;99.90
15617;DHT22;7908;51.688;7.130;2022-10-16T02:48:34;12.30;99.90
15617;DHT22;7908;51.688;7.130;2022-10-16T02:51:04;12.30;99.90
15617;DHT22;7908;51.688;7.130;2022-10-16T02:53:32;12.30;99.90
15617;DHT22;7908;51.688;7.130;2022-10-16T02:56:01;12.30;99.90
15617;DHT22;7908;51.688;7.130;2022-10-16T02:58:30;12.30;99.90
15617;DHT22;7908;51.688;7.130;2022-10-16T03:00:59;12.30;99.90
15617;DHT22;7908;51.688;7.130;2022-10-16T03:03:29;12.30;99.90
15617;DHT22;7908;51.688;7.130;2022-10-16T03:05:58;12.20;99.90
15617;DHT22;7908;51.688;7.130;2022-10-16T03:08:27;12.30;99.90
15617;DHT22;7908;51.688;7.130;2022-10-16T03:10:56;12.30;99.90
15617;DHT22;7908;51.688;7.130;2022-10-16T03:13:26;12.30;99.90
15617;DHT22;7908;51.688;7.130;2022-10-16T03:15:55;12.30;99.90
15617;DHT22;7908;51.688;7.130;2022-10-16T03:18:24;12.30;99.90
15617;DHT22;7908;51.688;7.130;2022-10-16T03:20:54;12.30;99.90
15617;DHT22;7908;51.688;7.130;2022-10-16T03:23:23;12.20;99.90
15617;DHT22;7908;51.688;7.130;2022-10-16T03:25:52;12.20;99.90
15617;DHT22;7908;51.688;7.130;2022-10-16T03:28:21;12.20;99.90
15617;DHT22;7908;51.688;7.130;2022-10-16T03:30:49;12.20;99.90
15617;DHT22;7908;51.688;7.130;2022-10-16T03:33:18;12.30;99.90
15617;DHT22;7908;51.688;7.130;2022-10-16T03:35:51;12.20;99.90
15617;DHT22;7908;51.688;7.130;2022-10-16T03:38:22;12.20;99.90
15617;DHT22;7908;51.688;7.130;2022-10-16T03:40:51;12.20;99.90
15617;DHT22;7908;51.688;7.130;2022-10-16T03:43:19;12.30;99.90
15617;DHT22;7908;51.688;7.130;2022-10-16T03:45:49;12.30;99.90
15617;DHT22;7908;51.688;7.130;2022-10-16T03:48:18;12.30;99.90
15617;DHT22;7908;51.688;7.130;2022-10-16T03:50:47;12.30;99.90
15617;DHT22;7908;51.688;7.130;2022-10-16T03:53:18;12.30;99.90
15617;DHT22;7908;51.688;7.130;2022-10-16T03:55:48;12.30;99.90
15617;DHT22;7908;51.688;7.130;2022-10-16T03:58:17;12.30;99.90
15617;DHT22;7908;51.688;7.130;2022-10-16T04:00:47;12.30;99.90
15617;DHT22;7908;51.688;7.130;2022-10-16T04:03:16;12.30;99.90
15617;DHT22;7908;51.688;7.130;2022-10-16T04:05:46;12.40;99.90
15617;DHT22;7908;51.688;7.130;2022-10-16T04:08:16;12.40;99.90
15617;DHT22;7908;51.688;7.130;2022-10-16T04:10:45;12.40;99.90
15617;DHT22;7908;51.688;7.130;2022-10-16T04:13:16;12.50;99.90
15617;DHT22;7908;51.688;7.130;2022-10-16T04:15:50;12.50;99.90
15617;DHT22;7908;51.688;7.130;2022-10-16T04:18:19;12.50;99.90
15617;DHT22;7908;51.688;7.130;2022-10-16T04:20:48;12.50;99.90
15617;DHT22;7908;51.688;7.130;2022-10-16T04:23:17;12.60;99.90
15617;DHT22;7908;51.688;7.130;2022-10-16T04:25:48;12.60;99.90
15617;DHT22;7908;51.688;7.130;2022-10-16T04:28:18;12.60;99.90
15617;DHT22;7908;51.688;7.130;2022-10-16T04:30:47;12.60;99.90
15617;DHT22;7908;51.688;7.130;2022-10-16T04:33:16;12.70;99.90
15617;DHT22;7908;51.688;7.130;2022-10-16T04:35:45;12.70;99.90
15617;DHT22;7908;51.688;7.130;2022-10-16T04:38:13;12.70;99.90
15617;DHT22;7908;51.688;7.130;2022-10-16T04:40:43;12.80;99.90
15617;DHT22;7908;51.688;7.130;2022-10-16T04:43:14;12.80;99.90
15617;DHT22;7908;51.688;7.130;2022-10-16T04:45:44;12.80;99.90
15617;DHT22;7908;51.688;7.130;2022-10-16T04:48:13;12.80;99.90
15617;DHT22;7908;51.688;7.130;2022-10-16T04:50:42;12.80;99.90
15617;DHT22;7908;51.688;7.130;2022-10-16T04:53:11;12.80;99.90
15617;DHT22;7908;51.688;7.130;2022-10-16T04:55:41;12.80;99.90
15617;DHT22;7908;51.688;7.130;2022-10-16T04:58:10;12.80;99.90
15617;DHT22;7908;51.688;7.130;2022-10-16T05:00:39;12.80;99.90
15617;DHT22;7908;51.688;7.130;2022-10-16T05:03:10;12.80;99.90
15617;DHT22;7908;51.688;7.130;2022-10-16T05:05:42;12.80;99.90
15617;DHT22;7908;51.688;7.130;2022-10-16T05:08:12;12.80;99.90
15617;DHT22;7908;51.688;7.130;2022-10-16T05:10:43;12.80;99.90
15617;DHT22;7908;51.688;7.130;2022-10-16T05:13:13;12.80;99.90
15617;DHT22;7908;51.688;7.130;2022-10-16T05:15:41;12.80;99.90
15617;DHT22;7908;51.688;7.130;2022-10-16T05:18:13;12.80;99.90
15617;DHT22;7908;51.688;7.130;2022-10-16T05:20:42;12.80;99.90
15617;DHT22;7908;51.688;7.130;2022-10-16T05:23:10;12.90;99.90
15617;DHT22;7908;51.688;7.130;2022-10-16T05:25:52;12.90;99.90
15617;DHT22;7908;51.688;7.130;2022-10-16T05:28:21;12.90;99.90
15617;DHT22;7908;51.688;7.130;2022-10-16T05:30:50;12.90;99.90
15617;DHT22;7908;51.688;7.130;2022-10-16T05:33:22;12.90;99.90
15617;DHT22;7908;51.688;7.130;2022-10-16T05:35:51;12.90;99.90
15617;DHT22;7908;51.688;7.130;2022-10-16T05:38:20;12.90;99.90
15617;DHT22;7908;51.688;7.130;2022-10-16T05:40:52;12.90;99.90
15617;DHT22;7908;51.688;7.130;2022-10-16T05:43:23;12.90;99.90
15617;DHT22;7908;51.688;7.130;2022-10-16T05:45:56;12.90;99.90
15617;DHT22;7908;51.688;7.130;2022-10-16T05:48:27;12.90;99.90
15617;DHT22;7908;51.688;7.130;2022-10-16T05:50:57;12.90;99.90
15617;DHT22;7908;51.688;7.130;2022-10-16T05:53:27;12.90;99.90
15617;DHT22;7908;51.688;7.130;2022-10-16T05:55:56;12.90;99.90
15617;DHT22;7908;51.688;7.130;2022-10-16T05:58:28;12.90;99.90
15617;DHT22;7908;51.688;7.130;2022-10-16T06:01:01;12.90;99.90
15617;DHT22;7908;51.688;7.130;2022-10-16T06:03:34;12.90;99.90
15617;DHT22;7908;51.688;7.130;2022-10-16T06:06:08;12.90;99.90
15617;DHT22;7908;51.688;7.130;2022-10-16T06:08:39;12.80;99.90
15617;DHT22;7908;51.688;7.130;2022-10-16T06:11:10;12.80;99.90
15617;DHT22;7908;51.688;7.130;2022-10-16T06:13:40;12.80;99.90
15617;DHT22;7908;51.688;7.130;2022-10-16T06:16:10;12.90;99.90
15617;DHT22;7908;51.688;7.130;2022-10-16T06:18:40;12.90;99.90
15617;DHT22;7908;51.688;7.130;2022-10-16T06:21:11;12.90;99.90
15617;DHT22;7908;51.688;7.130;2022-10-16T06:23:40;12.90;99.90
15617;DHT22;7908;51.688;7.130;2022-10-16T06:26:11;12.90;99.90
15617;DHT22;7908;51.688;7.130;2022-10-16T06:28:41;12.90;99.90
15617;DHT22;7908;51.688;7.130;2022-10-16T06:31:11;12.90;99.90
15617;DHT22;7908;51.688;7.130;2022-10-16T06:33:41;13.00;99.90
15617;DHT22;7908;51.688;7.130;2022-10-16T06:36:13;13.00;99.90
15617;DHT22;7908;51.688;7.130;2022-10-16T06:38:42;13.00;99.90
15617;DHT22;7908;51.688;7.130;2022-10-16T06:41:12;13.00;99.90
15617;DHT22;7908;51.688;7.130;2022-10-16T06:43:46;13.00;99.90
15617;DHT22;7908;51.688;7.130;2022-10-16T06:46:17;13.00;99.90
15617;DHT22;7908;51.688;7.130;2022-10-16T06:48:48;13.10;99.90
15617;DHT22;7908;51.688;7.130;2022-10-16T06:51:19;13.10;99.90
15617;DHT22;7908;51.688;7.130;2022-10-16T06:53:53;13.10;99.90
15617;DHT22;7908;51.688;7.130;2022-10-16T06:56:32;13.10;99.90
15617;DHT22;7908;51.688;7.130;2022-10-16T06:59:01;13.00;99.90
15617;DHT22;7908;51.688;7.130;2022-10-16T07:01:35;13.10;99.90
15617;DHT22;7908;51.688;7.130;2022-10-16T07:04:05;13.10;99.90
15617;DHT22;7908;51.688;7.130;2022-10-16T07:06:36;13.10;99.90
15617;DHT22;7908;51.688;7.130;2022-10-16T07:09:06;13.10;99.90
15617;DHT22;7908;51.688;7.130;2022-10-16T07:11:37;13.10;99.90
15617;DHT22;7908;51.688;7.130;2022-10-16T07:14:16;13.10;99.90
15617;DHT22;7908;51.688;7.130;2022-10-16T07:16:45;13.00;99.90
15617;DHT22;7908;51.688;7.130;2022-10-16T07:19:20;13.10;99.90
15617;DHT22;7908;51.688;7.130;2022-10-16T07:21:49;13.10;99.90
15617;DHT22;7908;51.688;7.130;2022-10-16T07:24:18;13.10;99.90
15617;DHT22;7908;51.688;7.130;2022-10-16T07:26:54;13.20;99.90
15617;DHT22;7908;51.688;7.130;2022-10-16T07:29:26;13.20;99.90
15617;DHT22;7908;51.688;7.130;2022-10-16T07:31:57;13.20;99.90
15617;DHT22;7908;51.688;7.130;2022-10-16T07:34:27;13.20;99.90
15617;DHT22;7908;51.688;7.130;2022-10-16T07:36:57;13.30;99.90
15617;DHT22;7908;51.688;7.130;2022-10-16T07:39:26;13.30;99.90
15617;DHT22;7908;51.688;7.130;2022-10-16T07:41:55;13.40;99.90
15617;DHT22;7908;51.688;7.130;2022-10-16T07:44:24;13.40;99.90
15617;DHT22;7908;51.688;7.130;2022-10-16T07:46:53;13.50;99.90
15617;DHT22;7908;51.688;7.130;2022-10-16T07:49:23;13.50;99.90
15617;DHT22;7908;51.688;7.130;2022-10-16T07:51:56;13.50;99.90
15617;DHT22;7908;51.688;7.130;2022-10-16T07:54:25;13.60;99.90
15617;DHT22;7908;51.688;7.130;2022-10-16T07:56:54;13.70;99.90
15617;DHT22;7908;51.688;7.130;2022-10-16T07:59:23;13.80;99.90
15617;DHT22;7908;51.688;7.130;2022-10-16T08:01:52;13.80;99.90
15617;DHT22;7908;51.688;7.130;2022-10-16T08:04:23;14.00;99.90
15617;DHT22;7908;51.688;7.130;2022-10-16T08:06:54;14.10;99.90
15617;DHT22;7908;51.688;7.130;2022-10-16T08:09:24;14.10;99.90
15617;DHT22;7908;51.688;7.130;2022-10-16T08:11:58;14.20;99.90
15617;DHT22;7908;51.688;7.130;2022-10-16T08:14:28;14.20;99.90
15617;DHT22;7908;51.688;7.130;2022-10-16T08:16:57;14.20;99.90
15617;DHT22;7908;51.688;7.130;2022-10-16T08:19:29;14.30;99.90
15617;DHT22;7908;51.688;7.130;2022-10-16T08:22:04;14.40;99.90
15617;DHT22;7908;51.688;7.130;2022-10-16T08:24:36;14.40;99.90
15617;DHT22;7908;51.688;7.130;2022-10-16T08:27:06;14.40;99.90
15617;DHT22;7908;51.688;7.130;2022-10-16T08:29:37;14.50;99.90
15617;DHT22;7908;51.688;7.130;2022-10-16T08:32:08;14.50;99.90
15617;DHT22;7908;51.688;7.130;2022-10-16T08:34:37;14.50;99.90
15617;DHT22;7908;51.688;7.130;2022-10-16T08:37:08;14.50;99.90
15617;DHT22;7908;51.688;7.130;2022-10-16T08:39:41;14.50;99.90
15617;DHT22;7908;51.688;7.130;2022-10-16T08:42:22;14.60;99.90
15617;DHT22;7908;51.688;7.130;2022-10-16T08:45:15;14.60;99.90
15617;DHT22;7908;51.688;7.130;2022-10-16T08:48:00;14.60;99.90
15617;DHT22;7908;51.688;7.130;2022-10-16T08:50:33;14.70;99.90
15617;DHT22;7908;51.688;7.130;2022-10-16T08:53:15;14.70;99.90
15617;DHT22;7908;51.688;7.130;2022-10-16T08:55:52;14.80;99.90
15617;DHT22;7908;51.688;7.130;2022-10-16T08:58:26;14.70;99.90
15617;DHT22;7908;51.688;7.130;2022-10-16T09:01:00;14.80;99.90
15617;DHT22;7908;51.688;7.130;2022-10-16T09:03:58;14.90;99.90
15617;DHT22;7908;51.688;7.130;2022-10-16T09:06:43;14.90;99.90
15617;DHT22;7908;51.688;7.130;2022-10-16T09:09:28;15.00;99.90
15617;DHT22;7908;51.688;7.130;2022-10-16T09:12:15;15.10;99.90
15617;DHT22;7908;51.688;7.130;2022-10-16T09:15:01;15.10;99.90
15617;DHT22;7908;51.688;7.130;2022-10-16T09:17:41;15.20;99.90
15617;DHT22;7908;51.688;7.130;2022-10-16T09:20:25;15.30;99.90
15617;DHT22;7908;51.688;7.130;2022-10-16T09:23:18;15.30;99.90
15617;DHT22;7908;51.688;7.130;2022-10-16T09:26:13;15.30;99.90
15617;DHT22;7908;51.688;7.130;2022-10-16T09:28:44;15.40;99.90
15617;DHT22;7908;51.688;7.130;2022-10-16T09:31:20;15.40;99.90
15617;DHT22;7908;51.688;7.130;2022-10-16T09:33:55;15.50;99.90
15617;DHT22;7908;51.688;7.130;2022-10-16T09:36:44;15.50;99.90
15617;DHT22;7908;51.688;7.130;2022-10-16T09:39:16;15.50;99.90
15617;DHT22;7908;51.688;7.130;2022-10-16T09:41:49;15.50;99.90
15617;DHT22;7908;51.688;7.130;2022-10-16T09:44:29;15.50;99.90
15617;DHT22;7908;51.688;7.130;2022-10-16T09:47:17;15.50;99.90
15617;DHT22;7908;51.688;7.130;2022-10-16T09:49:52;15.50;99.90
15617;DHT22;7908;51.688;7.130;2022-10-16T09:52:29;15.50;99.90
15617;DHT22;7908;51.688;7.130;2022-10-16T09:55:14;15.60;99.90
15617;DHT22;7908;51.688;7.130;2022-10-16T09:57:55;15.50;99.90
15617;DHT22;7908;51.688;7.130;2022-10-16T10:00:31;15.60;99.90
15617;DHT22;7908;51.688;7.130;2022-10-16T10:03:11;15.70;99.90
15617;DHT22;7908;51.688;7.130;2022-10-16T10:06:14;15.70;99.90
15617;DHT22;7908;51.688;7.130;2022-10-16T10:09:04;15.90;99.90
15617;DHT22;7908;51.688;7.130;2022-10-16T10:11:50;15.90;99.90
15617;DHT22;7908;51.688;7.130;2022-10-16T10:14:30;16.00;99.90
15617;DHT22;7908;51.688;7.130;2022-10-16T10:17:25;16.00;99.90
15617;DHT22;7908;51.688;7.130;2022-10-16T10:20:15;16.10;99.90
15617;DHT22;7908;51.688;7.130;2022-10-16T10:23:18;16.20;99.90
15617;DHT22;7908;51.688;7.130;2022-10-16T10:25:59;16.30;99.90
15617;DHT22;7908;51.688;7.130;2022-10-16T10:28:52;16.40;99.90
15617;DHT22;7908;51.688;7.130;2022-10-16T10:31:36;16.30;99.90
15617;DHT22;7908;51.688;7.130;2022-10-16T10:34:39;16.20;99.90
15617;DHT22;7908;51.688;7.130;2022-10-16T10:37:23;16.20;99.90
15617;DHT22;7908;51.688;7.130;2022-10-16T10:40:11;16.20;99.90
15617;DHT22;7908;51.688;7.130;2022-10-16T10:42:50;16.20;99.90
15617;DHT22;7908;51.688;7.130;2022-10-16T10:45:28;16.20;99.90
15617;DHT22;7908;51.688;7.130;2022-10-16T10:51:20;16.30;99.90
15617;DHT22;7908;51.688;7.130;2022-10-16T10:54:16;16.20;99.90
15617;DHT22;7908;51.688;7.130;2022-10-16T10:56:57;16.30;99.90
15617;DHT22;7908;51.688;7.130;2022-10-16T10:59:54;16.30;99.90
15617;DHT22;7908;51.688;7.130;2022-10-16T11:02:38;16.40;99.90
15617;DHT22;7908;51.688;7.130;2022-10-16T11:05:42;16.40;99.90
15617;DHT22;7908;51.688;7.130;2022-10-16T11:08:34;16.40;99.90
15617;DHT22;7908;51.688;7.130;2022-10-16T11:11:10;16.40;99.90
15617;DHT22;7908;51.688;7.130;2022-10-16T11:13:46;16.60;99.90
15617;DHT22;7908;51.688;7.130;2022-10-16T11:16:31;16.70;99.90
15617;DHT22;7908;51.688;7.130;2022-10-16T11:19:12;16.80;99.90
15617;DHT22;7908;51.688;7.130;2022-10-16T11:21:49;16.90;99.90
15617;DHT22;7908;51.688;7.130;2022-10-16T11:24:44;17.10;99.90
15617;DHT22;7908;51.688;7.130;2022-10-16T11:27:35;17.10;99.90
15617;DHT22;7908;51.688;7.130;2022-10-16T11:30:17;17.30;99.90
15617;DHT22;7908;51.688;7.130;2022-10-16T11:33:10;17.30;99.90
15617;DHT22;7908;51.688;7.130;2022-10-16T11:35:55;17.40;99.90
15617;DHT22;7908;51.688;7.130;2022-10-16T11:38:42;17.40;99.90
15617;DHT22;7908;51.688;7.130;2022-10-16T11:41:29;17.30;99.90
15617;DHT22;7908;51.688;7.130;2022-10-16T11:44:16;17.30;99.90
15617;DHT22;7908;51.688;7.130;2022-10-16T11:46:58;17.30;99.90
15617;DHT22;7908;51.688;7.130;2022-10-16T11:49:59;17.30;99.90
15617;DHT22;7908;51.688;7.130;2022-10-16T11:52:40;17.20;99.90
15617;DHT22;7908;51.688;7.130;2022-10-16T11:55:36;17.10;99.90
15617;DHT22;7908;51.688;7.130;2022-10-16T11:58:23;17.20;99.90
15617;DHT22;7908;51.688;7.130;2022-10-16T12:01:20;17.20;99.90
15617;DHT22;7908;51.688;7.130;2022-10-16T12:04:18;17.20;99.90
15617;DHT22;7908;51.688;7.130;2022-10-16T12:06:54;17.20;99.90
15617;DHT22;7908;51.688;7.130;2022-10-16T12:09:38;17.20;99.90
15617;DHT22;7908;51.688;7.130;2022-10-16T12:12:25;17.10;99.90
15617;DHT22;7908;51.688;7.130;2022-10-16T12:15:25;17.10;99.90
15617;DHT22;7908;51.688;7.130;2022-10-16T12:18:24;17.10;99.90
15617;DHT22;7908;51.688;7.130;2022-10-16T12:21:09;17.20;99.90
15617;DHT22;7908;51.688;7.130;2022-10-16T12:24:00;17.20;99.90
15617;DHT22;7908;51.688;7.130;2022-10-16T12:26:52;17.10;99.90
15617;DHT22;7908;51.688;7.130;2022-10-16T12:29:34;17.10;99.90
15617;DHT22;7908;51.688;7.130;2022-10-16T12:32:26;17.10;99.90
15617;DHT22;7908;51.688;7.130;2022-10-16T12:35:20;17.10;99.90
15617;DHT22;7908;51.688;7.130;2022-10-16T12:38:18;17.10;99.90
15617;DHT22;7908;51.688;7.130;2022-10-16T12:41:02;17.00;99.90
15617;DHT22;7908;51.688;7.130;2022-10-16T12:43:45;16.90;99.90
15617;DHT22;7908;51.688;7.130;2022-10-16T12:46:34;16.90;99.90
15617;DHT22;7908;51.688;7.130;2022-10-16T12:49:28;17.00;99.90
15617;DHT22;7908;51.688;7.130;2022-10-16T12:52:00;17.00;99.90
15617;DHT22;7908;51.688;7.130;2022-10-16T12:54:37;17.10;99.90
15617;DHT22;7908;51.688;7.130;2022-10-16T12:57:28;17.20;99.90
15617;DHT22;7908;51.688;7.130;2022-10-16T13:00:14;17.40;99.90
15617;DHT22;7908;51.688;7.130;2022-10-16T13:03:11;17.50;99.90
15617;DHT22;7908;51.688;7.130;2022-10-16T13:06:05;17.40;99.90
15617;DHT22;7908;51.688;7.130;2022-10-16T13:08:53;17.50;99.90
15617;DHT22;7908;51.688;7.130;2022-10-16T13:12:10;17.50;99.90
15617;DHT22;7908;51.688;7.130;2022-10-16T13:17:53;17.40;99.90
15617;DHT22;7908;51.688;7.130;2022-10-16T13:20:46;17.40;99.90
15617;DHT22;7908;51.688;7.130;2022-10-16T13:23:36;17.40;99.90
15617;DHT22;7908;51.688;7.130;2022-10-16T13:26:33;17.40;99.90
15617;DHT22;7908;51.688;7.130;2022-10-16T13:29:09;17.50;99.90
15617;DHT22;7908;51.688;7.130;2022-10-16T13:31:46;17.50;99.90
15617;DHT22;7908;51.688;7.130;2022-10-16T13:34:22;17.50;99.90
15617;DHT22;7908;51.688;7.130;2022-10-16T13:37:02;17.50;99.90
15617;DHT22;7908;51.688;7.130;2022-10-16T13:39:47;17.50;99.90
15617;DHT22;7908;51.688;7.130;2022-10-16T13:42:32;17.50;99.90
15617;DHT22;7908;51.688;7.130;2022-10-16T13:45:24;17.40;99.90
15617;DHT22;7908;51.688;7.130;2022-10-16T13:48:08;17.50;99.90
15617;DHT22;7908;51.688;7.130;2022-10-16T13:50:42;17.50;99.90
15617;DHT22;7908;51.688;7.130;2022-10-16T13:53:18;17.50;99.90
15617;DHT22;7908;51.688;7.130;2022-10-16T13:55:59;17.40;99.90
15617;DHT22;7908;51.688;7.130;2022-10-16T13:58:44;17.40;99.90
15617;DHT22;7908;51.688;7.130;2022-10-16T14:01:34;17.30;99.90
15617;DHT22;7908;51.688;7.130;2022-10-16T14:04:15;17.20;99.90
15617;DHT22;7908;51.688;7.130;2022-10-16T14:07:01;17.10;99.90
15617;DHT22;7908;51.688;7.130;2022-10-16T14:09:50;17.10;99.90
15617;DHT22;7908;51.688;7.130;2022-10-16T14:12:32;17.10;99.90
15617;DHT22;7908;51.688;7.130;2022-10-16T14:15:18;17.20;99.90
15617;DHT22;7908;51.688;7.130;2022-10-16T14:18:18;17.30;99.90
15617;DHT22;7908;51.688;7.130;2022-10-16T14:20:52;17.30;99.90
15617;DHT22;7908;51.688;7.130;2022-10-16T14:23:40;17.30;99.90
15617;DHT22;7908;51.688;7.130;2022-10-16T14:26:21;17.40;99.90
15617;DHT22;7908;51.688;7.130;2022-10-16T14:29:11;17.50;99.90
15617;DHT22;7908;51.688;7.130;2022-10-16T14:31:58;17.50;99.90
15617;DHT22;7908;51.688;7.130;2022-10-16T14:34:41;17.40;99.90
15617;DHT22;7908;51.688;7.130;2022-10-16T14:37:23;17.40;99.90
15617;DHT22;7908;51.688;7.130;2022-10-16T14:40:15;17.30;99.90
15617;DHT22;7908;51.688;7.130;2022-10-16T14:42:47;17.20;99.90
15617;DHT22;7908;51.688;7.130;2022-10-16T14:45:32;17.10;99.90
15617;DHT22;7908;51.688;7.130;2022-10-16T14:48:28;17.00;99.90
15617;DHT22;7908;51.688;7.130;2022-10-16T14:51:01;17.00;99.90
15617;DHT22;7908;51.688;7.130;2022-10-16T14:53:34;17.10;99.90
15617;DHT22;7908;51.688;7.130;2022-10-16T14:56:18;17.20;99.90
15617;DHT22;7908;51.688;7.130;2022-10-16T14:58:51;17.30;99.90
15617;DHT22;7908;51.688;7.130;2022-10-16T15:01:31;17.40;99.90
15617;DHT22;7908;51.688;7.130;2022-10-16T15:04:04;17.40;99.90
15617;DHT22;7908;51.688;7.130;2022-10-16T15:06:37;17.30;99.90
15617;DHT22;7908;51.688;7.130;2022-10-16T15:09:13;17.30;99.90
15617;DHT22;7908;51.688;7.130;2022-10-16T15:11:44;17.30;99.90
15617;DHT22;7908;51.688;7.130;2022-10-16T15:14:23;17.30;99.90
15617;DHT22;7908;51.688;7.130;2022-10-16T15:17:11;17.20;99.90
15617;DHT22;7908;51.688;7.130;2022-10-16T15:19:46;17.20;99.90
15617;DHT22;7908;51.688;7.130;2022-10-16T15:22:28;17.20;99.90
15617;DHT22;7908;51.688;7.130;2022-10-16T15:25:00;17.20;99.90
15617;DHT22;7908;51.688;7.130;2022-10-16T15:27:34;17.20;99.90
15617;DHT22;7908;51.688;7.130;2022-10-16T15:30:16;17.20;99.90
15617;DHT22;7908;51.688;7.130;2022-10-16T15:32:51;17.10;99.90
15617;DHT22;7908;51.688;7.130;2022-10-16T15:35:28;17.10;99.90
15617;DHT22;7908;51.688;7.130;2022-10-16T15:38:14;17.00;99.90
15617;DHT22;7908;51.688;7.130;2022-10-16T15:40:51;17.00;99.90
15617;DHT22;7908;51.688;7.130;2022-10-16T15:43:32;17.00;99.90
15617;DHT22;7908;51.688;7.130;2022-10-16T15:46:12;16.90;99.90
15617;DHT22;7908;51.688;7.130;2022-10-16T15:49:07;16.90;99.90
15617;DHT22;7908;51.688;7.130;2022-10-16T15:51:56;16.90;99.90
15617;DHT22;7908;51.688;7.130;2022-10-16T15:54:28;16.80;99.90
15617;DHT22;7908;51.688;7.130;2022-10-16T15:57:13;16.80;99.90
15617;DHT22;7908;51.688;7.130;2022-10-16T15:59:47;16.80;99.90
15617;DHT22;7908;51.688;7.130;2022-10-16T16:02:21;16.70;99.90
15617;DHT22;7908;51.688;7.130;2022-10-16T16:05:13;16.60;99.90
15617;DHT22;7908;51.688;7.130;2022-10-16T16:07:50;16.60;99.90
15617;DHT22;7908;51.688;7.130;2022-10-16T16:10:30;16.60;99.90
15617;DHT22;7908;51.688;7.130;2022-10-16T16:13:41;16.50;99.90
15617;DHT22;7908;51.688;7.130;2022-10-16T16:16:21;16.40;99.90
15617;DHT22;7908;51.688;7.130;2022-10-16T16:19:08;16.30;99.90
15617;DHT22;7908;51.688;7.130;2022-10-16T16:21:53;16.20;99.90
15617;DHT22;7908;51.688;7.130;2022-10-16T16:24:23;16.10;99.90
15617;DHT22;7908;51.688;7.130;2022-10-16T16:26:55;16.10;99.90
15617;DHT22;7908;51.688;7.130;2022-10-16T16:29:35;16.00;99.90
15617;DHT22;7908;51.688;7.130;2022-10-16T16:32:12;15.90;99.90
15617;DHT22;7908;51.688;7.130;2022-10-16T16:34:44;15.80;99.90
15617;DHT22;7908;51.688;7.130;2022-10-16T16:37:17;15.70;99.90
15617;DHT22;7908;51.688;7.130;2022-10-16T16:40:04;15.70;99.90
15617;DHT22;7908;51.688;7.130;2022-10-16T16:42:54;15.60;99.90
15617;DHT22;7908;51.688;7.130;2022-10-16T16:45:28;15.60;99.90
15617;DHT22;7908;51.688;7.130;2022-10-16T16:47:59;15.50;99.90
15617;DHT22;7908;51.688;7.130;2022-10-16T16:50:36;15.50;99.90
15617;DHT22;7908;51.688;7.130;2022-10-16T16:53:12;15.40;99.90
15617;DHT22;7908;51.688;7.130;2022-10-16T16:56:00;15.30;99.90
15617;DHT22;7908;51.688;7.130;2022-10-16T16:58:37;15.30;99.90
15617;DHT22;7908;51.688;7.130;2022-10-16T17:01:15;15.20;99.90